createdAt,value
2023-09-07T00:00:04.647Z,0.00
2023-09-07T00:01:04.608Z,0.00
2023-09-07T00:02:04.564Z,0.00
2023-09-07T00:03:04.460Z,0.00
2023-09-07T00:04:04.699Z,0.00
2023-09-07T00:05:04.340Z,0.00
2023-09-07T00:06:04.167Z,0.00
2023-09-07T00:07:04.127Z,0.00
2023-09-07T00:08:04.015Z,0.00
2023-09-07T00:09:06.590Z,0.00
2023-09-07T00:10:03.899Z,0.00
2023-09-07T00:11:03.793Z,0.00
2023-09-07T00:12:03.734Z,0.00
2023-09-07T00:13:03.643Z,0.00
2023-09-07T00:14:03.545Z,0.00
2023-09-07T00:15:03.462Z,0.00
2023-09-07T00:16:03.463Z,0.00
2023-09-07T00:17:03.440Z,0.00
2023-09-07T00:18:03.283Z,0.00
2023-09-07T00:19:03.154Z,0.00
2023-09-07T00:20:03.122Z,0.00
2023-09-07T00:21:02.992Z,0.00
2023-09-07T00:22:02.986Z,0.00
2023-09-07T00:23:02.841Z,0.00
2023-09-07T00:24:02.763Z,0.00
2023-09-07T00:25:02.696Z,0.00
2023-09-07T00:26:02.611Z,0.00
2023-09-07T00:27:02.535Z,0.00
2023-09-07T00:28:02.473Z,0.00
2023-09-07T00:29:02.370Z,0.00
2023-09-07T00:30:02.289Z,0.00
2023-09-07T00:31:02.303Z,0.00
2023-09-07T00:32:02.210Z,0.00
2023-09-07T00:33:02.054Z,0.00
2023-09-07T00:34:02.050Z,0.00
2023-09-07T00:35:01.890Z,0.00
2023-09-07T00:36:01.809Z,0.00
2023-09-07T00:37:01.819Z,0.00
2023-09-07T00:38:01.658Z,0.00
2023-09-07T00:39:01.571Z,0.00
2023-09-07T00:40:01.537Z,0.00
2023-09-07T00:41:01.421Z,0.00
2023-09-07T00:42:01.334Z,0.00
2023-09-07T00:43:01.291Z,0.00
2023-09-07T00:44:01.192Z,0.00
2023-09-07T00:45:01.104Z,0.00
2023-09-07T00:46:01.055Z,0.00
2023-09-07T00:47:01.034Z,0.00
2023-09-07T00:48:00.931Z,0.00
2023-09-07T00:49:00.790Z,0.00
2023-09-07T00:50:00.744Z,0.00
2023-09-07T00:51:00.633Z,0.00
2023-09-07T00:52:00.559Z,0.00
2023-09-07T00:53:00.479Z,0.00
2023-09-07T00:54:00.406Z,0.00
2023-09-07T00:55:00.326Z,0.00
2023-09-07T00:56:00.237Z,0.00
2023-09-07T00:57:00.161Z,0.00
2023-09-07T00:58:00.086Z,0.00
2023-09-07T00:59:00.042Z,0.00
2023-09-07T00:59:59.924Z,0.00
2023-09-07T01:00:59.889Z,0.00
2023-09-07T01:01:59.840Z,0.00
2023-09-07T01:02:59.730Z,0.00
2023-09-07T01:03:59.687Z,0.00
2023-09-07T01:04:59.537Z,0.00
2023-09-07T01:05:59.453Z,0.00
2023-09-07T01:06:59.382Z,0.00
2023-09-07T01:07:59.299Z,0.00
2023-09-07T01:08:59.221Z,0.00
2023-09-07T01:09:59.144Z,0.00
2023-09-07T01:10:59.067Z,0.00
2023-09-07T01:11:59.004Z,0.00
2023-09-07T01:12:58.912Z,0.00
2023-09-07T01:13:58.893Z,0.00
2023-09-07T01:14:58.739Z,0.00
2023-09-07T01:15:58.740Z,0.00
2023-09-07T01:16:58.704Z,0.00
2023-09-07T01:18:10.238Z,0.00
2023-09-07T01:18:58.484Z,0.00
2023-09-07T01:19:58.363Z,0.00
2023-09-07T01:20:58.272Z,0.00
2023-09-07T01:21:58.193Z,0.00
2023-09-07T01:22:58.202Z,0.00
2023-09-07T01:23:58.031Z,0.00
2023-09-07T01:24:57.952Z,0.00
2023-09-07T01:25:57.924Z,0.00
2023-09-07T01:26:57.800Z,0.00
2023-09-07T01:27:57.721Z,0.00
2023-09-07T01:28:57.637Z,0.00
2023-09-07T01:29:57.570Z,0.00
2023-09-07T01:30:57.511Z,0.00
2023-09-07T01:31:57.476Z,0.00
2023-09-07T01:32:57.323Z,0.00
2023-09-07T01:33:57.239Z,0.00
2023-09-07T01:34:57.225Z,0.00
2023-09-07T01:35:57.080Z,0.00
2023-09-07T01:36:57.008Z,0.00
2023-09-07T01:37:56.973Z,0.00
2023-09-07T01:38:56.850Z,0.00
2023-09-07T01:39:56.767Z,0.00
2023-09-07T01:40:56.725Z,0.00
2023-09-07T01:41:56.621Z,0.00
2023-09-07T01:42:56.530Z,0.00
2023-09-07T01:43:56.506Z,0.00
2023-09-07T01:44:56.378Z,0.00
2023-09-07T01:45:56.288Z,0.00
2023-09-07T01:46:56.401Z,0.00
2023-09-07T01:47:56.328Z,0.00
2023-09-07T01:48:56.060Z,0.00
2023-09-07T01:49:56.036Z,0.00
2023-09-07T01:50:55.914Z,0.00
2023-09-07T01:51:55.816Z,0.00
2023-09-07T01:52:55.752Z,0.00
2023-09-07T01:53:55.661Z,0.00
2023-09-07T01:54:55.585Z,0.00
2023-09-07T01:55:55.582Z,0.00
2023-09-07T01:56:55.423Z,0.00
2023-09-07T01:57:55.344Z,0.00
2023-09-07T01:58:55.347Z,0.00
2023-09-07T01:59:55.189Z,0.00
2023-09-07T02:00:55.184Z,0.00
2023-09-07T02:01:55.056Z,0.00
2023-09-07T02:02:54.965Z,0.00
2023-09-07T02:03:54.875Z,0.00
2023-09-07T02:04:54.844Z,0.00
2023-09-07T02:05:54.721Z,0.00
2023-09-07T02:06:54.636Z,0.00
2023-09-07T02:07:54.595Z,0.00
2023-09-07T02:08:54.479Z,0.00
2023-09-07T02:09:54.396Z,0.00
2023-09-07T02:10:54.381Z,0.00
2023-09-07T02:11:54.243Z,0.00
2023-09-07T02:12:54.161Z,0.00
2023-09-07T02:13:54.149Z,0.00
2023-09-07T02:14:54.014Z,0.00
2023-09-07T02:15:53.928Z,0.00
2023-09-07T02:16:53.939Z,0.00
2023-09-07T02:17:53.955Z,0.00
2023-09-07T02:18:53.685Z,0.00
2023-09-07T02:19:53.625Z,0.00
2023-09-07T02:20:53.577Z,0.00
2023-09-07T02:21:53.446Z,0.00
2023-09-07T02:22:53.364Z,0.00
2023-09-07T02:23:53.304Z,0.00
2023-09-07T02:24:53.212Z,0.00
2023-09-07T02:25:53.135Z,0.00
2023-09-07T02:26:53.090Z,0.00
2023-09-07T02:27:52.976Z,0.00
2023-09-07T02:28:52.897Z,0.00
2023-09-07T02:29:52.912Z,0.00
2023-09-07T02:30:52.818Z,0.00
2023-09-07T02:31:52.653Z,0.00
2023-09-07T02:32:52.640Z,0.00
2023-09-07T02:33:52.531Z,0.00
2023-09-07T02:34:52.418Z,0.00
2023-09-07T02:35:52.377Z,0.00
2023-09-07T02:36:52.260Z,0.00
2023-09-07T02:37:52.188Z,0.00
2023-09-07T02:38:52.129Z,0.00
2023-09-07T02:39:52.030Z,0.00
2023-09-07T02:40:51.951Z,0.00
2023-09-07T02:41:51.927Z,0.00
2023-09-07T02:42:51.785Z,0.00
2023-09-07T02:43:51.711Z,0.00
2023-09-07T02:44:51.636Z,0.00
2023-09-07T02:45:51.603Z,0.00
2023-09-07T02:46:51.471Z,0.00
2023-09-07T02:47:51.450Z,0.00
2023-09-07T02:48:51.340Z,0.00
2023-09-07T02:49:51.239Z,0.00
2023-09-07T02:50:51.274Z,0.00
2023-09-07T02:51:51.074Z,0.00
2023-09-07T02:52:50.995Z,0.00
2023-09-07T02:53:50.915Z,0.00
2023-09-07T02:54:50.843Z,0.00
2023-09-07T02:55:50.790Z,0.00
2023-09-07T02:56:50.685Z,0.00
2023-09-07T02:57:50.625Z,0.00
2023-09-07T02:58:50.524Z,0.00
2023-09-07T02:59:50.435Z,0.00
2023-09-07T03:00:50.377Z,0.00
2023-09-07T03:01:50.301Z,0.00
2023-09-07T03:02:50.250Z,0.00
2023-09-07T03:03:50.213Z,0.00
2023-09-07T03:04:50.071Z,0.00
2023-09-07T03:05:49.962Z,0.00
2023-09-07T03:06:49.923Z,0.00
2023-09-07T03:07:49.814Z,0.00
2023-09-07T03:08:49.722Z,0.00
2023-09-07T03:09:49.642Z,0.00
2023-09-07T03:10:49.566Z,0.00
2023-09-07T03:11:49.486Z,0.00
2023-09-07T03:12:49.400Z,0.00
2023-09-07T03:13:49.356Z,0.00
2023-09-07T03:14:49.251Z,0.00
2023-09-07T03:15:49.178Z,0.00
2023-09-07T03:16:49.172Z,0.00
2023-09-07T03:17:49.029Z,0.00
2023-09-07T03:18:48.924Z,0.00
2023-09-07T03:19:48.852Z,0.00
2023-09-07T03:20:48.769Z,0.00
2023-09-07T03:21:48.688Z,0.00
2023-09-07T03:22:48.599Z,0.00
2023-09-07T03:23:48.523Z,0.00
2023-09-07T03:24:48.455Z,0.00
2023-09-07T03:25:48.364Z,0.00
2023-09-07T03:26:48.283Z,0.00
2023-09-07T03:27:48.241Z,0.00
2023-09-07T03:28:48.125Z,0.00
2023-09-07T03:29:48.048Z,0.00
2023-09-07T03:30:47.965Z,0.00
2023-09-07T03:31:47.982Z,0.00
2023-09-07T03:32:47.870Z,0.00
2023-09-07T03:33:47.735Z,0.00
2023-09-07T03:34:47.646Z,0.00
2023-09-07T03:35:47.564Z,0.00
2023-09-07T03:36:47.539Z,0.00
2023-09-07T03:37:47.419Z,0.00
2023-09-07T03:38:47.348Z,0.00
2023-09-07T03:39:47.250Z,0.00
2023-09-07T03:40:47.167Z,0.00
2023-09-07T03:41:47.091Z,0.00
2023-09-07T03:42:47.006Z,0.00
2023-09-07T03:43:46.936Z,0.00
2023-09-07T03:44:46.854Z,0.00
2023-09-07T03:45:46.839Z,0.00
2023-09-07T03:46:46.872Z,0.00
2023-09-07T03:47:46.662Z,0.00
2023-09-07T03:48:46.536Z,0.00
2023-09-07T03:49:46.463Z,0.00
2023-09-07T03:50:46.368Z,0.00
2023-09-07T03:51:46.290Z,0.00
2023-09-07T03:52:46.242Z,0.00
2023-09-07T03:53:46.136Z,0.00
2023-09-07T03:54:46.071Z,0.00
2023-09-07T03:55:45.973Z,0.00
2023-09-07T03:56:45.888Z,0.00
2023-09-07T03:57:45.818Z,0.00
2023-09-07T03:58:45.731Z,0.00
2023-09-07T03:59:45.656Z,0.00
2023-09-07T04:00:45.577Z,0.00
2023-09-07T04:01:45.580Z,0.00
2023-09-07T04:02:45.575Z,0.00
2023-09-07T04:03:45.499Z,0.00
2023-09-07T04:04:45.256Z,0.00
2023-09-07T04:05:45.203Z,0.00
2023-09-07T04:06:45.097Z,0.00
2023-09-07T04:07:45.012Z,0.00
2023-09-07T04:08:44.989Z,0.00
2023-09-07T04:09:44.858Z,0.00
2023-09-07T04:10:44.769Z,0.00
2023-09-07T04:11:44.715Z,0.00
2023-09-07T04:12:44.617Z,0.00
2023-09-07T04:13:44.534Z,0.00
2023-09-07T04:14:44.461Z,0.00
2023-09-07T04:15:44.416Z,0.00
2023-09-07T04:16:44.321Z,0.00
2023-09-07T04:17:44.215Z,0.00
2023-09-07T04:18:44.218Z,0.00
2023-09-07T04:19:44.050Z,0.00
2023-09-07T04:20:44.005Z,0.00
2023-09-07T04:21:43.896Z,0.00
2023-09-07T04:22:43.814Z,0.00
2023-09-07T04:23:43.738Z,0.00
2023-09-07T04:24:43.703Z,0.00
2023-09-07T04:25:43.570Z,0.00
2023-09-07T04:26:43.490Z,0.00
2023-09-07T04:27:43.490Z,0.00
2023-09-07T04:28:43.344Z,0.00
2023-09-07T04:29:43.259Z,0.00
2023-09-07T04:30:43.255Z,0.00
2023-09-07T04:31:43.141Z,0.00
2023-09-07T04:32:43.044Z,0.00
2023-09-07T04:33:42.946Z,0.00
2023-09-07T04:34:42.860Z,0.00
2023-09-07T04:35:42.782Z,0.00
2023-09-07T04:36:42.696Z,0.00
2023-09-07T04:37:42.635Z,0.00
2023-09-07T04:38:42.553Z,0.00
2023-09-07T04:39:42.463Z,0.00
2023-09-07T04:40:42.389Z,0.00
2023-09-07T04:41:42.312Z,0.00
2023-09-07T04:42:42.213Z,0.00
2023-09-07T04:43:42.168Z,0.00
2023-09-07T04:44:42.058Z,0.00
2023-09-07T04:45:42.004Z,0.00
2023-09-07T04:46:41.919Z,0.00
2023-09-07T04:47:41.839Z,0.00
2023-09-07T04:48:41.736Z,0.00
2023-09-07T04:49:41.720Z,0.00
2023-09-07T04:50:41.576Z,0.00
2023-09-07T04:51:41.496Z,0.00
2023-09-07T04:52:41.540Z,0.00
2023-09-07T04:53:41.343Z,0.00
2023-09-07T04:54:41.263Z,0.00
2023-09-07T04:55:41.176Z,0.00
2023-09-07T04:56:41.150Z,0.00
2023-09-07T04:57:41.023Z,0.00
2023-09-07T04:58:40.944Z,0.00
2023-09-07T04:59:40.891Z,0.00
2023-09-07T05:00:40.775Z,0.00
2023-09-07T05:01:40.700Z,0.00
2023-09-07T05:02:40.633Z,0.00
2023-09-07T05:03:40.669Z,0.00
2023-09-07T05:04:40.573Z,0.00
2023-09-07T05:05:40.383Z,0.00
2023-09-07T05:06:40.349Z,0.00
2023-09-07T05:07:40.217Z,0.00
2023-09-07T05:08:40.137Z,0.00
2023-09-07T05:09:40.073Z,0.00
2023-09-07T05:10:40.029Z,0.00
2023-09-07T05:11:39.900Z,0.00
2023-09-07T05:12:39.861Z,0.00
2023-09-07T05:13:39.736Z,5.63
2023-09-07T05:14:39.651Z,5.63
2023-09-07T05:15:39.605Z,5.63
2023-09-07T05:16:39.514Z,5.63
2023-09-07T05:17:39.506Z,5.63
2023-09-07T05:18:39.351Z,5.63
2023-09-07T05:19:40.120Z,5.63
2023-09-07T05:20:39.178Z,5.63
2023-09-07T05:21:39.149Z,5.63
2023-09-07T05:22:39.011Z,5.63
2023-09-07T05:23:38.928Z,5.63
2023-09-07T05:24:38.850Z,5.63
2023-09-07T05:25:38.787Z,5.63
2023-09-07T05:26:38.733Z,5.63
2023-09-07T05:27:38.689Z,5.63
2023-09-07T05:28:38.531Z,5.63
2023-09-07T05:29:38.453Z,5.63
2023-09-07T05:30:38.408Z,5.63
2023-09-07T05:31:38.351Z,5.63
2023-09-07T05:32:38.260Z,5.63
2023-09-07T05:33:38.166Z,5.63
2023-09-07T05:34:38.052Z,5.63
2023-09-07T05:35:37.975Z,5.63
2023-09-07T05:36:37.891Z,5.63
2023-09-07T05:37:37.813Z,5.63
2023-09-07T05:38:38.174Z,5.63
2023-09-07T05:39:37.655Z,5.63
2023-09-07T05:40:37.588Z,5.63
2023-09-07T05:41:37.496Z,5.63
2023-09-07T05:42:37.411Z,5.63
2023-09-07T05:43:37.350Z,5.63
2023-09-07T05:44:37.247Z,5.63
2023-09-07T05:45:37.173Z,5.63
2023-09-07T05:46:37.109Z,5.63
2023-09-07T05:47:37.033Z,5.63
2023-09-07T05:48:36.933Z,5.63
2023-09-07T05:49:36.845Z,5.63
2023-09-07T05:50:36.779Z,5.63
2023-09-07T05:51:36.686Z,5.63
2023-09-07T05:52:36.645Z,11.25
2023-09-07T05:53:36.525Z,11.25
2023-09-07T05:54:36.495Z,11.25
2023-09-07T05:55:36.447Z,11.25
2023-09-07T05:56:36.293Z,11.25
2023-09-07T05:57:36.208Z,11.25
2023-09-07T05:58:36.169Z,11.25
2023-09-07T05:59:36.048Z,11.25
2023-09-07T06:00:36.024Z,11.25
2023-09-07T06:01:35.894Z,11.25
2023-09-07T06:02:35.860Z,11.25
2023-09-07T06:03:35.855Z,11.25
2023-09-07T06:04:35.696Z,11.25
2023-09-07T06:05:35.583Z,11.25
2023-09-07T06:06:35.490Z,11.25
2023-09-07T06:07:35.422Z,11.25
2023-09-07T06:08:35.565Z,11.25
2023-09-07T06:09:35.257Z,11.25
2023-09-07T06:10:35.170Z,11.25
2023-09-07T06:11:35.121Z,16.88
2023-09-07T06:12:35.018Z,16.88
2023-09-07T06:13:34.936Z,16.88
2023-09-07T06:14:34.876Z,16.88
2023-09-07T06:15:34.775Z,16.88
2023-09-07T06:16:34.697Z,16.88
2023-09-07T06:17:34.638Z,16.88
2023-09-07T06:18:34.851Z,16.88
2023-09-07T06:19:34.461Z,16.88
2023-09-07T06:20:34.373Z,16.88
2023-09-07T06:21:34.295Z,16.88
2023-09-07T06:22:34.213Z,16.88
2023-09-07T06:23:34.129Z,16.88
2023-09-07T06:24:34.058Z,22.50
2023-09-07T06:25:34.001Z,22.50
2023-09-07T06:26:33.927Z,22.50
2023-09-07T06:27:33.833Z,22.50
2023-09-07T06:28:34.042Z,22.50
2023-09-07T06:29:33.656Z,22.50
2023-09-07T06:30:33.604Z,22.50
2023-09-07T06:31:33.634Z,22.50
2023-09-07T06:32:33.484Z,22.50
2023-09-07T06:33:33.343Z,22.50
2023-09-07T06:34:33.304Z,22.50
2023-09-07T06:35:33.187Z,22.50
2023-09-07T06:36:45.442Z,28.13
2023-09-07T06:37:33.093Z,28.13
2023-09-07T06:38:33.141Z,28.13
2023-09-07T06:39:32.864Z,28.13
2023-09-07T06:40:32.791Z,28.13
2023-09-07T06:41:32.704Z,28.13
2023-09-07T06:42:32.617Z,28.13
2023-09-07T06:43:32.595Z,33.75
2023-09-07T06:44:32.468Z,33.75
2023-09-07T06:45:32.387Z,33.75
2023-09-07T06:46:32.344Z,33.75
2023-09-07T06:47:32.254Z,33.75
2023-09-07T06:48:32.455Z,33.75
2023-09-07T06:49:32.061Z,33.75
2023-09-07T06:50:31.984Z,39.38
2023-09-07T06:51:31.914Z,39.38
2023-09-07T06:52:31.856Z,39.38
2023-09-07T06:53:52.429Z,39.38
2023-09-07T06:54:31.729Z,39.38
2023-09-07T06:55:31.595Z,45.00
2023-09-07T06:56:31.522Z,45.00
2023-09-07T06:57:31.457Z,45.00
2023-09-07T06:58:31.556Z,45.00
2023-09-07T06:59:31.275Z,45.00
2023-09-07T07:00:31.217Z,45.00
2023-09-07T07:01:31.183Z,50.63
2023-09-07T07:02:31.056Z,50.63
2023-09-07T07:03:31.041Z,50.63
2023-09-07T07:04:30.965Z,50.63
2023-09-07T07:05:30.801Z,50.63
2023-09-07T07:06:30.724Z,56.25
2023-09-07T07:07:30.662Z,56.25
2023-09-07T07:08:30.775Z,56.25
2023-09-07T07:09:30.489Z,61.88
2023-09-07T07:10:30.438Z,61.88
2023-09-07T07:11:30.328Z,67.50
2023-09-07T07:12:30.252Z,67.50
2023-09-07T07:13:30.212Z,73.13
2023-09-07T07:14:30.090Z,73.13
2023-09-07T07:17:02.204Z,84.38
2023-09-07T07:18:01.956Z,84.38
2023-09-07T07:19:33.784Z,90.00
2023-09-07T07:20:01.810Z,95.63
2023-09-07T07:21:01.719Z,95.63
2023-09-07T07:22:01.622Z,101.25
2023-09-07T07:23:01.563Z,106.88
2023-09-07T07:24:01.464Z,112.50
2023-09-07T07:25:01.382Z,112.50
2023-09-07T07:26:01.442Z,118.13
2023-09-07T07:27:01.227Z,123.75
2023-09-07T07:28:01.155Z,123.75
2023-09-07T07:29:15.625Z,129.38
2023-09-07T07:30:01.071Z,129.38
2023-09-07T07:31:00.917Z,135.00
2023-09-07T07:32:00.932Z,135.00
2023-09-07T07:33:00.812Z,140.63
2023-09-07T07:34:00.674Z,140.63
2023-09-07T07:35:00.598Z,146.25
2023-09-07T07:36:00.626Z,146.25
2023-09-07T07:37:00.448Z,146.25
2023-09-07T07:38:00.364Z,151.88
2023-09-07T07:39:00.395Z,151.88
2023-09-07T07:40:00.241Z,157.50
2023-09-07T07:41:00.141Z,157.50
2023-09-07T07:42:00.058Z,157.50
2023-09-07T07:43:00.029Z,163.13
2023-09-07T07:43:59.897Z,163.13
2023-09-07T07:44:59.825Z,168.75
2023-09-07T07:45:59.815Z,168.75
2023-09-07T07:46:59.774Z,168.75
2023-09-07T07:47:59.631Z,174.38
2023-09-07T07:48:59.525Z,174.38
2023-09-07T07:49:59.437Z,180.00
2023-09-07T07:50:59.371Z,180.00
2023-09-07T07:51:59.295Z,180.00
2023-09-07T07:52:59.226Z,185.63
2023-09-07T07:53:59.243Z,185.63
2023-09-07T07:54:59.056Z,191.25
2023-09-07T07:55:58.992Z,191.25
2023-09-07T07:56:58.904Z,191.25
2023-09-07T07:57:58.823Z,196.88
2023-09-07T07:58:58.743Z,196.88
2023-09-07T07:59:58.699Z,202.50
2023-09-07T08:00:58.678Z,202.50
2023-09-07T08:01:58.524Z,202.50
2023-09-07T08:02:58.495Z,208.13
2023-09-07T08:03:59.955Z,208.13
2023-09-07T08:04:58.332Z,208.13
2023-09-07T08:05:58.219Z,213.75
2023-09-07T08:06:58.141Z,213.75
2023-09-07T08:07:58.055Z,213.75
2023-09-07T08:08:57.985Z,213.75
2023-09-07T08:09:57.922Z,213.75
2023-09-07T08:10:57.874Z,219.38
2023-09-07T08:11:57.764Z,219.38
2023-09-07T08:12:57.680Z,219.38
2023-09-07T08:13:57.623Z,219.38
2023-09-07T08:14:57.537Z,219.38
2023-09-07T08:15:57.522Z,219.38
2023-09-07T08:16:57.492Z,225.00
2023-09-07T08:17:57.416Z,225.00
2023-09-07T08:18:57.283Z,225.00
2023-09-07T08:19:57.152Z,225.00
2023-09-07T08:20:57.090Z,225.00
2023-09-07T08:21:57.013Z,225.00
2023-09-07T08:22:56.989Z,225.00
2023-09-07T08:23:56.858Z,225.00
2023-09-07T08:24:56.781Z,225.00
2023-09-07T08:25:56.743Z,225.00
2023-09-07T08:26:56.632Z,230.63
2023-09-07T08:27:56.562Z,230.63
2023-09-07T08:28:56.485Z,230.63
2023-09-07T08:29:56.411Z,230.63
2023-09-07T08:30:56.516Z,230.63
2023-09-07T08:31:59.151Z,230.63
2023-09-07T08:32:56.259Z,230.63
2023-09-07T08:33:56.173Z,230.63
2023-09-07T08:34:56.032Z,230.63
2023-09-07T08:35:55.961Z,230.63
2023-09-07T08:36:55.953Z,230.63
2023-09-07T08:37:55.812Z,230.63
2023-09-07T08:38:55.729Z,230.63
2023-09-07T08:39:55.662Z,230.63
2023-09-07T08:40:55.590Z,230.63
2023-09-07T08:42:01.135Z,230.63
2023-09-07T08:42:55.449Z,230.63
2023-09-07T08:43:55.367Z,230.63
2023-09-07T08:44:55.285Z,230.63
2023-09-07T08:45:55.253Z,230.63
2023-09-07T08:46:55.150Z,230.63
2023-09-07T08:47:55.118Z,230.63
2023-09-07T08:48:55.025Z,230.63
2023-09-07T08:49:54.925Z,230.63
2023-09-07T08:50:54.859Z,230.63
2023-09-07T08:51:54.845Z,230.63
2023-09-07T08:52:54.710Z,230.63
2023-09-07T08:53:54.655Z,230.63
2023-09-07T08:54:54.557Z,230.63
2023-09-07T08:55:54.485Z,225.00
2023-09-07T08:56:54.458Z,225.00
2023-09-07T08:57:54.340Z,225.00
2023-09-07T08:58:54.269Z,225.00
2023-09-07T08:59:54.185Z,225.00
2023-09-07T09:00:54.154Z,225.00
2023-09-07T09:01:54.077Z,225.00
2023-09-07T09:02:56.609Z,219.38
2023-09-07T09:03:54.043Z,219.38
2023-09-07T09:04:53.880Z,219.38
2023-09-07T09:05:53.762Z,219.38
2023-09-07T09:06:53.695Z,219.38
2023-09-07T09:07:53.616Z,213.75
2023-09-07T09:08:53.623Z,213.75
2023-09-07T09:09:53.458Z,213.75
2023-09-07T09:10:53.387Z,213.75
2023-09-07T09:11:53.316Z,213.75
2023-09-07T09:12:53.252Z,213.75
2023-09-07T09:13:53.220Z,213.75
2023-09-07T09:14:53.111Z,213.75
2023-09-07T09:15:53.053Z,213.75
2023-09-07T09:16:53.092Z,213.75
2023-09-07T09:17:52.980Z,213.75
2023-09-07T09:18:52.900Z,213.75
2023-09-07T09:19:52.751Z,213.75
2023-09-07T09:20:52.696Z,213.75
2023-09-07T09:21:52.593Z,213.75
2023-09-07T09:22:52.608Z,213.75
2023-09-07T09:23:52.448Z,213.75
2023-09-07T09:24:52.382Z,213.75
2023-09-07T09:25:52.305Z,213.75
2023-09-07T09:26:52.236Z,213.75
2023-09-07T09:27:52.165Z,213.75
2023-09-07T09:28:52.195Z,213.75
2023-09-07T09:29:52.013Z,213.75
2023-09-07T09:30:51.960Z,213.75
2023-09-07T09:31:51.895Z,213.75
2023-09-07T09:32:51.839Z,213.75
2023-09-07T09:33:51.725Z,213.75
2023-09-07T09:34:51.663Z,213.75
2023-09-07T09:35:51.593Z,213.75
2023-09-07T09:36:51.522Z,213.75
2023-09-07T09:37:51.444Z,213.75
2023-09-07T09:38:51.373Z,213.75
2023-09-07T09:39:51.303Z,213.75
2023-09-07T09:40:51.237Z,213.75
2023-09-07T09:41:51.154Z,213.75
2023-09-07T09:42:51.087Z,213.75
2023-09-07T09:43:51.006Z,213.75
2023-09-07T09:44:50.950Z,213.75
2023-09-07T09:45:50.895Z,213.75
2023-09-07T09:46:51.109Z,213.75
2023-09-07T09:47:50.743Z,213.75
2023-09-07T09:48:50.694Z,219.38
2023-09-07T09:49:50.640Z,219.38
2023-09-07T09:50:50.516Z,219.38
2023-09-07T09:51:50.442Z,219.38
2023-09-07T09:52:50.400Z,219.38
2023-09-07T09:53:50.307Z,219.38
2023-09-07T09:54:50.221Z,219.38
2023-09-07T09:55:50.189Z,219.38
2023-09-07T09:56:50.077Z,219.38
2023-09-07T09:57:50.013Z,219.38
2023-09-07T09:58:49.983Z,219.38
2023-09-07T09:59:49.869Z,219.38
2023-09-07T10:00:49.823Z,219.38
2023-09-07T10:01:49.737Z,219.38
2023-09-07T10:02:49.734Z,219.38
2023-09-07T10:03:49.612Z,219.38
2023-09-07T10:04:49.511Z,219.38
2023-09-07T10:05:49.451Z,219.38
2023-09-07T10:06:49.380Z,219.38
2023-09-07T10:07:49.328Z,219.38
2023-09-07T10:08:49.228Z,219.38
2023-09-07T10:09:49.157Z,219.38
2023-09-07T10:10:49.114Z,219.38
2023-09-07T10:11:49.015Z,219.38
2023-09-07T10:12:48.951Z,219.38
2023-09-07T10:13:48.900Z,219.38
2023-09-07T10:14:48.817Z,219.38
2023-09-07T10:15:48.737Z,219.38
2023-09-07T10:16:48.958Z,219.38
2023-09-07T10:17:48.734Z,219.38
2023-09-07T10:18:48.558Z,219.38
2023-09-07T10:19:48.460Z,219.38
2023-09-07T10:20:48.472Z,219.38
2023-09-07T10:21:48.313Z,219.38
2023-09-07T10:22:48.242Z,219.38
2023-09-07T10:23:48.216Z,219.38
2023-09-07T10:24:48.098Z,219.38
2023-09-07T10:25:48.031Z,219.38
2023-09-07T10:26:47.964Z,219.38
2023-09-07T10:27:47.888Z,219.38
2023-09-07T10:28:47.816Z,219.38
2023-09-07T10:29:47.815Z,219.38
2023-09-07T10:30:47.764Z,219.38
2023-09-07T10:31:54.093Z,219.38
2023-09-07T10:32:47.610Z,213.75
2023-09-07T10:33:47.500Z,213.75
2023-09-07T10:34:47.411Z,213.75
2023-09-07T10:35:47.335Z,213.75
2023-09-07T10:36:47.278Z,213.75
2023-09-07T10:37:47.209Z,213.75
2023-09-07T10:38:47.114Z,213.75
2023-09-07T10:39:47.329Z,213.75
2023-09-07T10:40:47.028Z,213.75
2023-09-07T10:41:46.912Z,213.75
2023-09-07T10:42:46.837Z,213.75
2023-09-07T10:43:46.761Z,213.75
2023-09-07T10:44:46.738Z,213.75
2023-09-07T10:45:47.459Z,213.75
2023-09-07T10:46:46.583Z,213.75
2023-09-07T10:47:46.496Z,213.75
2023-09-07T10:48:46.523Z,213.75
2023-09-07T10:49:46.362Z,213.75
2023-09-07T10:50:46.278Z,213.75
2023-09-07T10:51:46.244Z,213.75
2023-09-07T10:52:46.148Z,213.75
2023-09-07T10:53:46.077Z,213.75
2023-09-07T10:54:45.993Z,213.75
2023-09-07T10:55:45.922Z,213.75
2023-09-07T10:56:45.865Z,213.75
2023-09-07T10:57:45.814Z,213.75
2023-09-07T10:58:45.719Z,213.75
2023-09-07T10:59:45.717Z,213.75
2023-09-07T11:00:45.586Z,213.75
2023-09-07T11:01:45.596Z,213.75
2023-09-07T11:02:45.733Z,213.75
2023-09-07T11:03:45.506Z,213.75
2023-09-07T11:04:45.394Z,213.75
2023-09-07T11:05:45.271Z,213.75
2023-09-07T11:06:45.175Z,208.13
2023-09-07T11:07:45.089Z,208.13
2023-09-07T11:08:45.033Z,208.13
2023-09-07T11:09:45.012Z,208.13
2023-09-07T11:10:44.885Z,208.13
2023-09-07T11:11:44.812Z,208.13
2023-09-07T11:12:44.754Z,208.13
2023-09-07T11:13:44.679Z,208.13
2023-09-07T11:14:44.768Z,208.13
2023-09-07T11:15:44.579Z,202.50
2023-09-07T11:16:44.544Z,202.50
2023-09-07T11:17:44.492Z,202.50
2023-09-07T11:18:44.441Z,202.50
2023-09-07T11:19:44.268Z,202.50
2023-09-07T11:20:44.203Z,202.50
2023-09-07T11:21:44.126Z,202.50
2023-09-07T11:23:02.929Z,202.50
2023-09-07T11:23:44.045Z,202.50
2023-09-07T11:24:43.925Z,202.50
2023-09-07T11:25:43.852Z,202.50
2023-09-07T11:26:43.794Z,196.88
2023-09-07T11:27:43.767Z,196.88
2023-09-07T11:28:43.644Z,196.88
2023-09-07T11:29:43.578Z,196.88
2023-09-07T11:30:43.508Z,196.88
2023-09-07T11:31:43.496Z,196.88
2023-09-07T11:32:43.426Z,196.88
2023-09-07T11:33:43.309Z,196.88
2023-09-07T11:34:43.278Z,196.88
2023-09-07T11:35:43.164Z,196.88
2023-09-07T11:36:43.096Z,196.88
2023-09-07T11:37:43.032Z,191.25
2023-09-07T11:38:42.965Z,191.25
2023-09-07T11:39:42.955Z,191.25
2023-09-07T11:40:42.828Z,191.25
2023-09-07T11:41:42.758Z,191.25
2023-09-07T11:42:42.816Z,191.25
2023-09-07T11:43:42.614Z,191.25
2023-09-07T11:44:42.558Z,191.25
2023-09-07T11:45:42.701Z,191.25
2023-09-07T11:46:42.492Z,191.25
2023-09-07T11:47:42.425Z,191.25
2023-09-07T11:48:42.277Z,191.25
2023-09-07T11:49:42.204Z,191.25
2023-09-07T11:50:42.151Z,191.25
2023-09-07T11:51:42.065Z,191.25
2023-09-07T11:52:42.007Z,191.25
2023-09-07T11:53:41.936Z,185.63
2023-09-07T11:54:41.877Z,185.63
2023-09-07T11:55:41.841Z,185.63
2023-09-07T11:56:41.729Z,185.63
2023-09-07T11:57:41.654Z,185.63
2023-09-07T11:58:41.607Z,185.63
2023-09-07T11:59:56.114Z,185.63
2023-09-07T12:00:41.456Z,185.63
2023-09-07T12:01:41.423Z,185.63
2023-09-07T12:02:41.393Z,185.63
2023-09-07T12:03:41.294Z,185.63
2023-09-07T12:04:42.163Z,185.63
2023-09-07T12:05:41.249Z,185.63
2023-09-07T12:06:41.048Z,185.63
2023-09-07T12:07:41.025Z,185.63
2023-09-07T12:08:40.929Z,185.63
2023-09-07T12:09:40.849Z,185.63
2023-09-07T12:10:40.789Z,185.63
2023-09-07T12:11:40.768Z,185.63
2023-09-07T12:12:40.633Z,185.63
2023-09-07T12:13:40.582Z,185.63
2023-09-07T12:14:40.504Z,185.63
2023-09-07T12:15:40.432Z,185.63
2023-09-07T12:16:40.462Z,185.63
2023-09-07T12:17:40.371Z,185.63
2023-09-07T12:18:40.398Z,185.63
2023-09-07T12:19:40.151Z,185.63
2023-09-07T12:20:40.191Z,185.63
2023-09-07T12:21:40.029Z,185.63
2023-09-07T12:22:39.978Z,185.63
2023-09-07T12:23:39.887Z,185.63
2023-09-07T12:24:39.856Z,185.63
2023-09-07T12:25:39.751Z,185.63
2023-09-07T12:26:39.740Z,185.63
2023-09-07T12:27:52.528Z,185.63
2023-09-07T12:28:39.551Z,185.63
2023-09-07T12:29:39.508Z,185.63
2023-09-07T12:30:39.410Z,185.63
2023-09-07T12:31:39.370Z,185.63
2023-09-07T12:32:39.346Z,185.63
2023-09-07T12:33:39.245Z,185.63
2023-09-07T12:34:39.139Z,185.63
2023-09-07T12:35:39.071Z,185.63
2023-09-07T12:36:39.049Z,185.63
2023-09-07T12:37:38.930Z,185.63
2023-09-07T12:38:39.022Z,185.63
2023-09-07T12:39:38.872Z,185.63
2023-09-07T12:40:38.726Z,185.63
2023-09-07T12:41:38.673Z,185.63
2023-09-07T12:42:38.618Z,180.00
2023-09-07T12:43:38.530Z,180.00
2023-09-07T12:44:38.471Z,180.00
2023-09-07T12:45:39.095Z,180.00
2023-09-07T12:46:38.349Z,180.00
2023-09-07T12:47:38.281Z,180.00
2023-09-07T12:48:38.194Z,180.00
2023-09-07T12:49:38.130Z,180.00
2023-09-07T12:50:38.050Z,180.00
2023-09-07T12:51:37.985Z,180.00
2023-09-07T12:52:37.925Z,180.00
2023-09-07T12:53:37.850Z,180.00